Rejestracja

Wszystkie dane podawane są w czasie UTC za wyjątkiem miejsc gdzie jest jednoznacznie podane, że jest inaczej. Dane podawane w serwisie mają charakter informacyjny!!!
Informacje w sprawie dostępu do serwisu pod numerem tel. +48 261-828-559 lub +48 261-828-138
Informacja dla żołnierzy i pracowników wojska: Prosimy o niezwłoczną zmianę adresu e-mail w profilu użytkownika na pocztę w domenie @ron.mil.pl

Aktualna Pogoda
 
Pogoda w Polsce
25°C Szczecin 23°C Suwałki 27°C Warszawa 28°C Poznan
29°C Opole 27°C Kraków 26°C Rzeszów
Więcej miast w Polsce

Pogoda w Europie
25°C Berlin 22°C Paryz 24°C Bruksela 22°C Oslo
26°C Praga 27°C Zagrzeb
Więcej miast w Europie

Metary wojskowe test
METAR EPBC 141000Z 09006KT CAVOK 27/09 Q1016=
METAR EPCE 141030Z 10004G14KT 060V120 9999 SCT069 27/09 Q1015 RMK 273 033 4/4=
METAR EPDA 141030Z 34005KT 310V020 9999 FEW047 26/14 Q1014 RMK 260 048 1/1=
METAR EPDE 141030Z 07006KT 9999 SCT060 SCT200 28/10 Q1016 RMK 277 033 4/3=
METAR EPIR 141030Z 08012KT 9999 NSC 29/10 Q1014 RMK 286 031 1/1=
METAR EPKS 141030Z 07005KT 360V120 9999 SCT150 29/12 Q1014 RMK 289 036 3/3=
METAR EPLK 141030Z 10010KT 050V150 9999 NSC 28/09 Q1014 RMK 282 029 3/1=
METAR EPLY 141030Z 15006KT 9999 NSC 28/10 Q1014 RMK 280 032 3/1=
METAR EPMB 141030Z 08008KT 050V150 9999 FEW050 SCT200 28/10 Q1015 RMK 281 032 3/1=
METAR EPMI 141030Z 11007KT 060V150 9999 FEW050 SCT150 28/08 Q1014 RMK 284 028 3/1=
METAR EPMM 141030Z VRB05KT 9999 FEW060 SCT200 26/08 Q1016 RMK 260 031 3/1=
METAR EPNA 141000Z 10010KT 9999 NSC 28/09 Q1014 RMK 275 032 3/3=
METAR EPOK 141030Z 11009KT 9999 FEW030 SCT/// 23/16 Q1016 RMK 229 065 4/1=
METAR EPPR 141030Z 08006KT 9999 NSC 28/10 Q1015 RMK 281 033 3/3=
METAR EPPW 141030Z 12010KT 9999 NSC 29/09 Q1014 RMK 290 029 2/1=
METAR EPSN 141030Z AUTO 08008KT 060V120 9999 NCD 29/06 Q1014 RMK 289 024 ///=
METAR EPTM 141030Z 06006KT 9999 FEW050 FEW200 28/11 Q1015 RMK 276 036 2/1=


 

Prawa autorskie©2007 SSH SZ RP. Wszelkie prawa zastrzeżone.